createdAt,value
2023-04-03T00:01:03.197Z,3.60
2023-04-03T00:03:31.201Z,2.90
2023-04-03T00:05:59.129Z,3.60
2023-04-03T00:08:27.106Z,3.00
2023-04-03T00:10:55.067Z,3.00
2023-04-03T00:13:24.582Z,3.00
2023-04-03T00:15:52.841Z,3.00
2023-04-03T00:18:20.916Z,2.90
2023-04-03T00:20:49.915Z,2.90
2023-04-03T00:23:17.966Z,3.10
2023-04-03T00:25:46.078Z,2.80
2023-04-03T00:28:14.388Z,2.80
2023-04-03T00:30:44.084Z,2.80
2023-04-03T00:33:14.593Z,2.80
2023-04-03T00:35:43.533Z,2.80
2023-04-03T00:38:11.722Z,2.90
2023-04-03T00:40:43.904Z,2.60
2023-04-03T00:43:15.509Z,2.60
2023-04-03T00:45:46.872Z,2.70
2023-04-03T00:48:18.933Z,2.80
2023-04-03T00:50:47.977Z,2.80
2023-04-03T00:53:19.957Z,2.80
2023-04-03T00:55:50.205Z,2.70
2023-04-03T00:58:20.817Z,2.80
2023-04-03T01:00:58.338Z,2.70
2023-04-03T01:03:26.787Z,2.70
2023-04-03T01:05:54.897Z,2.80
2023-04-03T01:08:22.861Z,2.80
2023-04-03T01:10:51.055Z,2.70
2023-04-03T01:13:28.312Z,2.60
2023-04-03T01:15:58.710Z,2.60
2023-04-03T01:18:28.082Z,2.70
2023-04-03T01:21:32.182Z,2.60
2023-04-03T01:24:13.627Z,2.70
2023-04-03T01:26:41.849Z,2.70
2023-04-03T01:29:10.092Z,2.60
2023-04-03T01:31:52.218Z,2.60
2023-04-03T01:34:21.047Z,2.50
2023-04-03T01:36:49.274Z,2.50
2023-04-03T01:39:17.442Z,2.50
2023-04-03T01:41:45.944Z,2.40
2023-04-03T01:44:14.805Z,2.40
2023-04-03T01:46:43.360Z,2.40
2023-04-03T01:49:12.836Z,2.50
2023-04-03T01:51:40.803Z,2.40
2023-04-03T01:54:08.792Z,2.40
2023-04-03T01:56:36.736Z,2.40
2023-04-03T01:59:04.716Z,2.40
2023-04-03T02:01:32.745Z,2.30
2023-04-03T02:04:00.753Z,2.30
2023-04-03T02:06:30.043Z,2.30
2023-04-03T02:08:58.025Z,2.30
2023-04-03T02:11:26.158Z,2.20
2023-04-03T02:13:54.113Z,2.30
2023-04-03T02:16:22.149Z,2.20
2023-04-03T02:18:50.878Z,2.30
2023-04-03T02:21:18.824Z,2.20
2023-04-03T02:23:48.124Z,2.20
2023-04-03T02:26:18.560Z,2.10
2023-04-03T02:28:46.784Z,2.10
2023-04-03T02:31:14.905Z,2.10
2023-04-03T02:33:42.984Z,2.00
2023-04-03T02:36:11.085Z,2.00
2023-04-03T02:38:39.156Z,2.10
2023-04-03T02:41:10.103Z,2.00
2023-04-03T02:43:38.719Z,2.00
2023-04-03T02:46:07.450Z,2.00
2023-04-03T02:48:36.253Z,2.00
2023-04-03T02:51:04.341Z,2.00
2023-04-03T02:53:32.330Z,1.90
2023-04-03T02:56:00.283Z,2.00
2023-04-03T02:58:29.604Z,2.00
2023-04-03T03:00:57.551Z,1.90
2023-04-03T03:03:25.499Z,1.90
2023-04-03T03:06:03.431Z,1.90
2023-04-03T03:08:31.397Z,1.90
2023-04-03T03:10:59.377Z,1.90
2023-04-03T03:13:28.693Z,1.90
2023-04-03T03:15:56.740Z,1.90
2023-04-03T03:18:25.378Z,1.90
2023-04-03T03:20:54.188Z,1.90
2023-04-03T03:23:22.855Z,1.90
2023-04-03T03:25:50.854Z,1.90
2023-04-03T03:28:18.804Z,1.90
2023-04-03T03:30:48.628Z,1.80
2023-04-03T03:33:18.151Z,1.90
2023-04-03T03:35:46.440Z,1.80
2023-04-03T03:38:14.532Z,1.90
2023-04-03T03:40:42.555Z,1.80
2023-04-03T03:43:10.549Z,1.80
2023-04-03T03:45:38.857Z,1.80
2023-04-03T03:48:08.575Z,1.70
2023-04-03T03:50:36.600Z,1.80
2023-04-03T03:53:04.824Z,1.80
2023-04-03T03:55:32.864Z,1.90
2023-04-03T03:58:02.038Z,1.90
2023-04-03T04:00:30.113Z,1.90
2023-04-03T04:02:59.534Z,1.90
2023-04-03T04:05:29.024Z,1.90
2023-04-03T04:07:57.046Z,2.10
2023-04-03T04:10:25.273Z,2.00
2023-04-03T04:12:53.332Z,2.60
2023-04-03T04:15:22.563Z,2.10
2023-04-03T04:17:50.777Z,1.90
2023-04-03T04:20:18.993Z,1.80
2023-04-03T04:22:48.337Z,1.90
2023-04-03T04:25:16.413Z,1.80
2023-04-03T04:27:44.537Z,1.90
2023-04-03T04:30:13.665Z,1.90
2023-04-03T04:32:41.752Z,1.90
2023-04-03T04:35:10.805Z,2.00
2023-04-03T04:37:38.859Z,2.00
2023-04-03T04:40:09.759Z,2.10
2023-04-03T04:42:37.741Z,2.00
2023-04-03T04:45:06.333Z,2.00
2023-04-03T04:47:43.175Z,2.00
2023-04-03T04:50:12.441Z,2.00
2023-04-03T04:52:40.627Z,2.00
2023-04-03T04:55:10.513Z,1.90
2023-04-03T04:57:39.915Z,1.90
2023-04-03T05:00:09.708Z,1.90
2023-04-03T05:02:37.787Z,2.00
2023-04-03T05:05:06.377Z,2.00
2023-04-03T05:07:34.460Z,2.00
2023-04-03T05:10:03.049Z,1.90
2023-04-03T05:12:32.567Z,1.90
2023-04-03T05:15:00.648Z,1.90
2023-04-03T05:17:28.691Z,1.90
2023-04-03T05:19:56.861Z,1.90
2023-04-03T05:22:24.847Z,1.90
2023-04-03T05:24:52.837Z,1.90
2023-04-03T05:27:20.917Z,1.80
2023-04-03T05:29:55.448Z,1.80
2023-04-03T05:32:23.552Z,1.80
2023-04-03T05:34:52.670Z,1.80
2023-04-03T05:37:21.322Z,1.80
2023-04-03T05:39:49.441Z,1.90
2023-04-03T05:42:17.857Z,1.90
2023-04-03T05:44:47.803Z,1.90
2023-04-03T05:47:21.011Z,1.90
2023-04-03T05:49:49.065Z,1.90
2023-04-03T05:52:23.281Z,1.90
2023-04-03T05:54:51.625Z,2.40
2023-04-03T05:57:20.316Z,1.80
2023-04-03T05:59:48.808Z,1.80
2023-04-03T06:02:21.079Z,1.80
2023-04-03T06:04:49.839Z,1.80
2023-04-03T06:07:21.984Z,1.70
2023-04-03T06:09:50.791Z,1.70
2023-04-03T06:12:22.635Z,1.70
2023-04-03T06:14:51.037Z,1.60
2023-04-03T06:17:20.497Z,1.50
2023-04-03T06:19:48.822Z,1.60
2023-04-03T06:22:16.821Z,1.60
2023-04-03T06:24:44.872Z,1.40
2023-04-03T06:27:13.374Z,1.40
2023-04-03T06:29:41.513Z,1.40
2023-04-03T06:32:09.484Z,2.00
2023-04-03T06:34:39.097Z,1.40
2023-04-03T06:37:07.224Z,1.40
2023-04-03T06:39:35.922Z,1.40
2023-04-03T06:42:04.059Z,1.40
2023-04-03T06:44:32.045Z,1.40
2023-04-03T06:47:00.033Z,1.40
2023-04-03T06:49:30.097Z,1.40
2023-04-03T06:52:01.032Z,1.40
2023-04-03T06:54:30.524Z,1.40
2023-04-03T06:56:58.593Z,1.40
2023-04-03T06:59:26.758Z,1.40
2023-04-03T07:01:54.992Z,1.50
2023-04-03T07:04:23.042Z,1.50
2023-04-03T07:06:51.719Z,1.50
2023-04-03T07:09:21.844Z,1.50
2023-04-03T07:11:55.106Z,1.50
2023-04-03T07:14:23.164Z,1.50
2023-04-03T07:16:51.401Z,1.50
2023-04-03T07:19:20.029Z,1.50
2023-04-03T07:21:48.270Z,1.50
2023-04-03T07:24:16.952Z,1.40
2023-04-03T07:26:47.167Z,1.50
2023-04-03T07:29:15.187Z,1.50
2023-04-03T07:31:43.577Z,1.50
2023-04-03T07:34:11.800Z,1.50
2023-04-03T07:36:39.811Z,1.50
2023-04-03T07:39:09.135Z,1.50
2023-04-03T07:41:37.199Z,1.50
2023-04-03T07:44:07.056Z,1.50
2023-04-03T07:46:35.138Z,1.50
2023-04-03T07:49:03.269Z,1.50
2023-04-03T07:51:31.868Z,1.50
2023-04-03T07:53:59.916Z,1.50
2023-04-03T07:56:27.911Z,1.50
2023-04-03T07:58:56.240Z,1.50
2023-04-03T08:01:25.629Z,1.50
2023-04-03T08:03:53.695Z,1.50
2023-04-03T08:06:33.065Z,1.50
2023-04-03T08:09:10.057Z,1.50
2023-04-03T08:11:40.354Z,1.50
2023-04-03T08:14:08.401Z,1.40
2023-04-03T08:16:37.812Z,1.40
2023-04-03T08:19:09.556Z,1.40
2023-04-03T08:21:43.169Z,1.50
2023-04-03T08:24:11.468Z,2.00
2023-04-03T08:26:39.733Z,1.40
2023-04-03T08:29:07.744Z,1.80
2023-04-03T08:31:42.586Z,1.20
2023-04-03T08:34:10.737Z,1.10
2023-04-03T08:36:39.136Z,1.10
2023-04-03T08:39:07.427Z,1.00
2023-04-03T08:41:44.373Z,1.00
2023-04-03T08:44:27.514Z,1.10
2023-04-03T08:47:13.548Z,1.10
2023-04-03T08:49:48.195Z,1.00
2023-04-03T08:52:19.514Z,1.00
2023-04-03T08:54:52.838Z,1.00
2023-04-03T08:57:28.613Z,1.00
2023-04-03T08:59:57.748Z,1.00
2023-04-03T09:02:32.222Z,1.00
2023-04-03T09:05:00.307Z,1.00
2023-04-03T09:07:37.912Z,1.00
2023-04-03T09:10:06.591Z,1.00
2023-04-03T09:12:41.167Z,1.00
2023-04-03T09:15:27.805Z,1.00
2023-04-03T09:18:09.763Z,1.00
2023-04-03T09:20:51.967Z,1.00
2023-04-03T09:23:26.886Z,1.00
2023-04-03T09:26:04.728Z,1.00
2023-04-03T09:28:42.843Z,1.00
2023-04-03T09:31:22.117Z,1.00
2023-04-03T09:33:54.494Z,1.00
2023-04-03T09:39:05.961Z,1.00
2023-04-03T09:41:34.310Z,1.00
2023-04-03T09:44:02.534Z,1.00
2023-04-03T09:46:34.891Z,1.00
2023-04-03T09:49:09.373Z,1.00
2023-04-03T09:51:37.820Z,1.00
2023-04-03T09:54:28.226Z,1.00
2023-04-03T09:56:58.055Z,1.00
2023-04-03T09:59:26.207Z,1.00
2023-04-03T10:02:01.999Z,1.00
2023-04-03T10:04:40.790Z,1.00
2023-04-03T10:07:31.352Z,1.00
2023-04-03T10:10:00.979Z,1.00
2023-04-03T10:12:29.276Z,1.00
2023-04-03T10:14:58.822Z,1.00
2023-04-03T10:17:37.734Z,1.00
2023-04-03T10:20:24.220Z,1.00
2023-04-03T10:23:04.743Z,1.00
2023-04-03T10:25:40.694Z,1.00
2023-04-03T10:28:13.956Z,1.00
2023-04-03T10:30:49.370Z,1.00
2023-04-03T10:33:29.381Z,1.00
2023-04-03T10:36:10.414Z,1.00
2023-04-03T10:38:50.279Z,1.00
2023-04-03T10:41:27.148Z,1.00
2023-04-03T10:44:04.713Z,1.00
2023-04-03T10:46:38.951Z,1.00
2023-04-03T10:49:21.359Z,1.00
2023-04-03T10:52:01.682Z,1.00
2023-04-03T10:54:37.830Z,1.00
2023-04-03T10:57:12.565Z,1.00
2023-04-03T10:59:45.878Z,1.00
2023-04-03T11:02:21.643Z,1.00
2023-04-03T11:04:53.344Z,1.00
2023-04-03T11:07:24.938Z,1.00
2023-04-03T11:09:57.486Z,1.00
2023-04-03T11:12:30.968Z,1.00
2023-04-03T11:14:59.766Z,1.00
2023-04-03T11:17:33.838Z,1.00
2023-04-03T11:20:08.401Z,1.00
2023-04-03T11:22:42.845Z,1.00
2023-04-03T11:25:22.820Z,1.00
2023-04-03T11:27:56.156Z,1.00
2023-04-03T11:30:29.395Z,1.00
2023-04-03T11:33:14.459Z,1.00
2023-04-03T11:35:46.155Z,1.00
2023-04-03T11:38:23.878Z,1.00
2023-04-03T11:40:53.111Z,1.00
2023-04-03T11:43:26.954Z,1.00
2023-04-03T11:46:01.960Z,1.00
2023-04-03T11:48:57.511Z,1.00
2023-04-03T11:51:45.261Z,1.00
2023-04-03T11:54:45.869Z,1.00
2023-04-03T11:57:48.306Z,1.00
2023-04-03T12:00:52.492Z,1.00
2023-04-03T12:03:53.107Z,1.00
2023-04-03T12:07:03.900Z,1.00
2023-04-03T12:10:03.466Z,1.00
2023-04-03T12:12:41.960Z,1.00
2023-04-03T12:15:28.820Z,1.00
2023-04-03T12:17:56.948Z,1.00
2023-04-03T12:20:56.586Z,1.00
2023-04-03T12:23:27.216Z,1.00
2023-04-03T12:26:04.792Z,1.00
2023-04-03T12:28:39.791Z,1.00
2023-04-03T12:31:12.053Z,1.00
2023-04-03T12:34:03.418Z,1.00
2023-04-03T12:36:40.594Z,1.00
2023-04-03T12:39:18.708Z,1.00
2023-04-03T12:41:56.787Z,1.00
2023-04-03T12:44:40.106Z,1.00
2023-04-03T12:47:23.915Z,1.00
2023-04-03T12:49:52.931Z,1.00
2023-04-03T12:52:32.038Z,1.00
2023-04-03T12:55:03.107Z,1.00
2023-04-03T12:57:31.510Z,1.00
2023-04-03T13:00:01.304Z,1.00
2023-04-03T13:02:31.079Z,1.00
2023-04-03T13:05:01.632Z,1.00
2023-04-03T13:07:34.376Z,1.00
2023-04-03T13:10:16.949Z,1.00
2023-04-03T13:12:50.081Z,1.00
2023-04-03T13:15:22.043Z,1.00
2023-04-03T13:17:51.131Z,1.00
2023-04-03T13:20:23.947Z,1.00
2023-04-03T13:22:57.934Z,1.00
2023-04-03T13:25:30.564Z,1.00
2023-04-03T13:30:34.538Z,1.00
2023-04-03T13:33:06.459Z,1.00
2023-04-03T13:35:39.165Z,1.00
2023-04-03T13:38:22.315Z,1.00
2023-04-03T13:40:52.318Z,1.00
2023-04-03T13:43:25.158Z,1.00
2023-04-03T13:46:08.100Z,1.00
2023-04-03T13:48:40.992Z,1.00
2023-04-03T13:51:20.632Z,1.00
2023-04-03T13:53:51.628Z,1.00
2023-04-03T13:56:24.935Z,1.00
2023-04-03T13:59:01.050Z,1.00
2023-04-03T14:01:39.983Z,1.00
2023-04-03T14:04:19.661Z,1.00
2023-04-03T14:06:48.698Z,1.00
2023-04-03T14:09:17.872Z,1.00
2023-04-03T14:11:47.223Z,1.00
2023-04-03T14:14:17.667Z,1.00
2023-04-03T14:16:49.917Z,1.00
2023-04-03T14:19:22.172Z,1.00
2023-04-03T14:21:51.694Z,1.00
2023-04-03T14:24:20.184Z,1.00
2023-04-03T14:26:48.612Z,1.00
2023-04-03T14:29:17.509Z,1.00
2023-04-03T14:31:49.674Z,1.00
2023-04-03T14:34:18.883Z,1.00
2023-04-03T14:36:47.462Z,1.00
2023-04-03T14:39:20.025Z,1.00
2023-04-03T14:41:48.623Z,1.00
2023-04-03T14:44:17.520Z,1.00
2023-04-03T14:46:56.316Z,1.00
2023-04-03T14:49:29.014Z,1.00
2023-04-03T14:51:57.626Z,1.00
2023-04-03T14:54:29.073Z,1.00
2023-04-03T14:56:59.050Z,1.00
2023-04-03T14:59:28.474Z,1.00
2023-04-03T15:01:57.931Z,1.00
2023-04-03T15:04:26.419Z,1.00
2023-04-03T15:06:54.762Z,1.00
2023-04-03T15:09:25.979Z,1.00
2023-04-03T15:11:55.920Z,1.00
2023-04-03T15:14:35.941Z,1.00
2023-04-03T15:17:06.926Z,1.00
2023-04-03T15:19:39.322Z,1.00
2023-04-03T15:22:07.420Z,1.00
2023-04-03T15:24:35.561Z,1.00
2023-04-03T15:27:04.081Z,1.00
2023-04-03T15:29:32.136Z,1.00
2023-04-03T15:32:00.255Z,1.00
2023-04-03T15:34:30.257Z,1.00
2023-04-03T15:36:59.353Z,1.00
2023-04-03T15:39:28.294Z,1.00
2023-04-03T15:42:15.618Z,1.00
2023-04-03T15:48:23.275Z,1.00
2023-04-03T15:50:52.877Z,1.00
2023-04-03T15:53:21.034Z,1.00
2023-04-03T15:55:49.280Z,1.00
2023-04-03T15:58:17.380Z,1.00
2023-04-03T16:00:45.709Z,1.00
2023-04-03T16:03:20.066Z,1.00
2023-04-03T16:05:51.380Z,1.00
2023-04-03T16:08:23.637Z,1.00
2023-04-03T16:10:51.555Z,1.00
2023-04-03T16:13:19.548Z,1.00
2023-04-03T16:15:47.769Z,1.00
2023-04-03T16:18:16.438Z,1.00
2023-04-03T16:20:45.704Z,1.00
2023-04-03T16:23:14.248Z,1.00
2023-04-03T16:28:15.701Z,1.00
2023-04-03T16:30:44.402Z,1.00
2023-04-03T16:33:13.092Z,1.00
2023-04-03T16:35:42.944Z,1.00
2023-04-03T16:38:11.177Z,1.00
2023-04-03T16:40:39.201Z,1.00
2023-04-03T16:43:08.710Z,1.00
2023-04-03T16:45:36.989Z,1.00
2023-04-03T16:48:05.987Z,1.00
2023-04-03T16:50:34.272Z,1.00
2023-04-03T16:53:03.910Z,1.00
2023-04-03T16:55:32.509Z,1.00
2023-04-03T16:58:00.601Z,1.00
2023-04-03T17:00:30.115Z,1.00
2023-04-03T17:02:58.091Z,1.00
2023-04-03T17:05:26.244Z,1.00
2023-04-03T17:07:54.266Z,1.00
2023-04-03T17:10:23.281Z,1.00
2023-04-03T17:12:51.304Z,1.00
2023-04-03T17:15:20.799Z,1.00
2023-04-03T17:17:50.994Z,1.00
2023-04-03T17:20:19.249Z,1.00
2023-04-03T17:22:47.429Z,1.00
2023-04-03T17:25:15.888Z,1.00
2023-04-03T17:27:44.322Z,1.00
2023-04-03T17:30:13.319Z,1.00
2023-04-03T17:32:41.345Z,1.00
2023-04-03T17:35:11.940Z,1.00
2023-04-03T17:37:40.102Z,1.00
2023-04-03T17:40:09.430Z,1.00
2023-04-03T17:42:37.463Z,1.00
2023-04-03T17:45:06.429Z,1.00
2023-04-03T17:47:34.546Z,1.00
2023-04-03T17:50:02.709Z,1.00
2023-04-03T17:52:32.172Z,1.00
2023-04-03T17:55:00.331Z,1.00
2023-04-03T17:57:28.596Z,1.00
2023-04-03T17:59:59.981Z,1.00
2023-04-03T18:02:28.056Z,1.00
2023-04-03T18:04:59.230Z,1.00
2023-04-03T18:07:29.554Z,1.00
2023-04-03T18:10:00.558Z,1.00
2023-04-03T18:12:28.656Z,1.00
2023-04-03T18:14:57.094Z,1.00
2023-04-03T18:17:26.765Z,1.00
2023-04-03T18:19:55.155Z,1.00
2023-04-03T18:22:25.110Z,1.00
2023-04-03T18:24:54.757Z,1.00
2023-04-03T18:27:27.668Z,1.00
2023-04-03T18:29:58.930Z,1.00
2023-04-03T18:32:27.030Z,1.00
2023-04-03T18:34:55.203Z,1.00
2023-04-03T18:37:24.196Z,1.00
2023-04-03T18:39:52.262Z,1.00
2023-04-03T18:42:25.574Z,1.00
2023-04-03T18:44:57.838Z,1.00
2023-04-03T18:47:27.996Z,1.00
2023-04-03T18:49:56.561Z,1.00
2023-04-03T18:52:25.262Z,1.00
2023-04-03T18:54:53.429Z,1.00
2023-04-03T18:57:21.378Z,1.00
2023-04-03T18:59:50.801Z,1.00
2023-04-03T19:02:21.207Z,1.00
2023-04-03T19:04:49.571Z,1.00
2023-04-03T19:07:17.544Z,1.00
2023-04-03T19:09:45.567Z,1.00
2023-04-03T19:12:13.528Z,1.00
2023-04-03T19:14:41.488Z,1.00
2023-04-03T19:17:10.807Z,1.00
2023-04-03T19:19:39.537Z,1.00
2023-04-03T19:22:08.472Z,1.00
2023-04-03T19:24:36.558Z,1.00
2023-04-03T19:27:04.706Z,1.00
2023-04-03T19:29:32.667Z,1.00
2023-04-03T19:32:00.622Z,1.00
2023-04-03T19:34:30.121Z,1.00
2023-04-03T19:36:58.528Z,1.00
2023-04-03T19:39:26.575Z,1.00
2023-04-03T19:41:54.545Z,1.00
2023-04-03T19:44:22.629Z,1.00
2023-04-03T19:46:51.595Z,1.00
2023-04-03T19:49:20.478Z,1.00
2023-04-03T19:51:49.939Z,1.00
2023-04-03T19:54:18.219Z,1.00
2023-04-03T19:56:46.618Z,1.00
2023-04-03T19:59:14.898Z,1.00
2023-04-03T20:01:42.990Z,1.00
2023-04-03T20:04:11.017Z,1.00
2023-04-03T20:06:39.121Z,1.00
2023-04-03T20:09:08.775Z,1.00
2023-04-03T20:11:37.166Z,1.00
2023-04-03T20:14:05.682Z,1.00
2023-04-03T20:16:33.743Z,1.00
2023-04-03T20:19:02.438Z,1.00
2023-04-03T20:21:32.251Z,1.00
2023-04-03T20:24:00.410Z,1.00
2023-04-03T20:26:31.755Z,1.00
2023-04-03T20:29:02.648Z,1.00
2023-04-03T20:31:31.080Z,1.00
2023-04-03T20:33:59.025Z,1.00
2023-04-03T20:36:28.904Z,1.00
2023-04-03T20:38:57.138Z,1.00
2023-04-03T20:41:25.792Z,1.00
2023-04-03T20:43:55.426Z,1.00
2023-04-03T20:46:34.882Z,1.00
2023-04-03T20:49:10.506Z,1.00
2023-04-03T20:51:38.503Z,1.00
2023-04-03T20:54:07.572Z,1.00
2023-04-03T20:56:35.577Z,1.00
2023-04-03T20:59:05.341Z,1.00
2023-04-03T21:01:33.795Z,1.00
2023-04-03T21:04:07.214Z,1.00
2023-04-03T21:07:12.516Z,1.00
2023-04-03T21:10:18.557Z,1.00
2023-04-03T21:13:24.264Z,1.00
2023-04-03T21:15:54.761Z,1.00
2023-04-03T21:18:59.361Z,1.00
2023-04-03T21:21:27.967Z,1.00
2023-04-03T21:23:57.130Z,1.00
2023-04-03T21:26:27.548Z,1.00
2023-04-03T21:28:56.410Z,1.00
2023-04-03T21:31:24.733Z,1.00
2023-04-03T21:33:53.008Z,1.00
2023-04-03T21:36:22.317Z,1.00
2023-04-03T21:38:51.070Z,1.00
2023-04-03T21:41:19.063Z,1.00
2023-04-03T21:43:47.805Z,1.00
2023-04-03T21:46:15.885Z,1.00
2023-04-03T21:48:45.660Z,1.00
2023-04-03T21:51:13.658Z,1.00
2023-04-03T21:53:43.608Z,1.00
2023-04-03T21:56:11.643Z,1.00
2023-04-03T21:58:39.677Z,1.00
2023-04-03T22:01:11.817Z,1.00
2023-04-03T22:03:40.457Z,1.00
2023-04-03T22:06:08.899Z,1.00
2023-04-03T22:08:36.910Z,1.00
2023-04-03T22:11:08.460Z,1.00
2023-04-03T22:13:37.491Z,1.00
2023-04-03T22:16:06.158Z,1.00
2023-04-03T22:18:34.900Z,1.00
2023-04-03T22:21:03.140Z,1.00
2023-04-03T22:23:31.130Z,1.00
2023-04-03T22:26:00.519Z,1.00
2023-04-03T22:28:30.230Z,1.00
2023-04-03T22:30:58.244Z,1.00
2023-04-03T22:33:26.192Z,1.00
2023-04-03T22:35:54.174Z,1.00
2023-04-03T22:38:22.546Z,1.00
2023-04-03T22:40:58.645Z,1.00
2023-04-03T22:43:30.173Z,1.00
2023-04-03T22:45:58.841Z,1.00
2023-04-03T22:48:27.163Z,1.00
2023-04-03T22:50:55.689Z,1.00
2023-04-03T22:53:24.044Z,1.00
2023-04-03T22:55:56.089Z,1.00
2023-04-03T22:58:26.308Z,1.00
2023-04-03T23:00:56.941Z,1.00
2023-04-03T23:03:25.984Z,1.00
2023-04-03T23:05:56.093Z,1.00
2023-04-03T23:08:24.282Z,1.00
2023-04-03T23:10:55.684Z,1.00
2023-04-03T23:13:23.834Z,1.00
2023-04-03T23:15:55.911Z,1.00
2023-04-03T23:18:24.326Z,1.00
2023-04-03T23:20:54.476Z,1.00
2023-04-03T23:23:23.588Z,1.00
2023-04-03T23:25:55.332Z,1.00
2023-04-03T23:28:23.451Z,1.00
2023-04-03T23:30:52.109Z,1.00
2023-04-03T23:33:21.506Z,1.00
2023-04-03T23:35:49.513Z,1.00
2023-04-03T23:38:17.650Z,1.00
2023-04-03T23:40:47.256Z,1.00
2023-04-03T23:43:15.601Z,1.00
2023-04-03T23:45:45.709Z,1.00
2023-04-03T23:48:13.780Z,1.00
2023-04-03T23:50:44.390Z,1.00
2023-04-03T23:53:13.537Z,1.00
2023-04-03T23:55:41.863Z,1.00
2023-04-03T23:58:10.704Z,1.00
